sensor_id;sensor_type;location;lat;lon;timestamp;pressure;altitude;pressure_sealevel;temperature;humidity
20350;BME280;10332;50.208;18.988;2023-02-14T00:01:24;99788.56;;;6.32;99.72
20350;BME280;10332;50.208;18.988;2023-02-14T00:03:51;99792.00;;;6.32;99.51
20350;BME280;10332;50.208;18.988;2023-02-14T00:06:20;99798.84;;;6.35;99.13
20350;BME280;10332;50.208;18.988;2023-02-14T00:08:48;99797.06;;;6.37;98.77
20350;BME280;10332;50.208;18.988;2023-02-14T00:11:18;99791.00;;;6.38;98.16
20350;BME280;10332;50.208;18.988;2023-02-14T00:13:46;99786.59;;;6.41;97.75
20350;BME280;10332;50.208;18.988;2023-02-14T00:16:32;99797.91;;;6.39;97.37
20350;BME280;10332;50.208;18.988;2023-02-14T00:19:00;99793.50;;;6.42;97.42
20350;BME280;10332;50.208;18.988;2023-02-14T00:21:39;99797.88;;;6.40;97.51
20350;BME280;10332;50.208;18.988;2023-02-14T00:26:41;99804.75;;;6.41;97.29
20350;BME280;10332;50.208;18.988;2023-02-14T00:29:12;99803.00;;;6.42;97.20
20350;BME280;10332;50.208;18.988;2023-02-14T00:31:40;99803.00;;;6.42;96.97
20350;BME280;10332;50.208;18.988;2023-02-14T00:34:09;99807.25;;;6.44;97.15
20350;BME280;10332;50.208;18.988;2023-02-14T00:36:37;99793.56;;;6.38;96.98
20350;BME280;10332;50.208;18.988;2023-02-14T00:39:09;99800.59;;;6.34;96.96
20350;BME280;10332;50.208;18.988;2023-02-14T00:41:38;99799.78;;;6.32;96.92
20350;BME280;10332;50.208;18.988;2023-02-14T00:44:08;99805.06;;;6.29;97.21
20350;BME280;10332;50.208;18.988;2023-02-14T00:46:37;99812.66;;;6.35;97.10
20350;BME280;10332;50.208;18.988;2023-02-14T00:49:05;99807.66;;;6.29;97.13
20350;BME280;10332;50.208;18.988;2023-02-14T00:51:32;99808.63;;;6.23;97.24
20350;BME280;10332;50.208;18.988;2023-02-14T00:54:00;99814.59;;;6.27;97.18
20350;BME280;10332;50.208;18.988;2023-02-14T00:56:28;99813.09;;;6.17;97.66
20350;BME280;10332;50.208;18.988;2023-02-14T00:58:55;99814.94;;;6.12;97.55
20350;BME280;10332;50.208;18.988;2023-02-14T01:01:23;99811.47;;;6.13;97.39
20350;BME280;10332;50.208;18.988;2023-02-14T01:03:50;99816.75;;;6.08;97.63
20350;BME280;10332;50.208;18.988;2023-02-14T01:06:18;99808.91;;;6.11;97.36
20350;BME280;10332;50.208;18.988;2023-02-14T01:08:46;99804.50;;;6.15;97.44
20350;BME280;10332;50.208;18.988;2023-02-14T01:11:18;99800.25;;;6.12;97.12
20350;BME280;10332;50.208;18.988;2023-02-14T01:13:48;99801.13;;;6.11;97.46
20350;BME280;10332;50.208;18.988;2023-02-14T01:16:21;99806.28;;;6.13;97.19
20350;BME280;10332;50.208;18.988;2023-02-14T01:18:50;99801.00;;;6.16;97.25
20350;BME280;10332;50.208;18.988;2023-02-14T01:21:25;99799.34;;;6.13;97.03
20350;BME280;10332;50.208;18.988;2023-02-14T01:23:58;99789.84;;;6.14;96.87
20350;BME280;10332;50.208;18.988;2023-02-14T01:26:27;99787.13;;;6.18;96.70
20350;BME280;10332;50.208;18.988;2023-02-14T01:28:56;99789.03;;;6.12;96.63
20350;BME280;10332;50.208;18.988;2023-02-14T01:31:29;99785.94;;;5.94;97.02
20350;BME280;10332;50.208;18.988;2023-02-14T01:33:59;99793.00;;;5.86;97.20
20350;BME280;10332;50.208;18.988;2023-02-14T01:36:36;99791.34;;;5.82;97.29
20350;BME280;10332;50.208;18.988;2023-02-14T01:39:11;99786.31;;;5.76;97.64
20350;BME280;10332;50.208;18.988;2023-02-14T01:41:42;99778.47;;;5.79;97.68
20350;BME280;10332;50.208;18.988;2023-02-14T01:46:43;99770.31;;;5.56;97.97
20350;BME280;10332;50.208;18.988;2023-02-14T01:52:01;99770.31;;;5.56;98.22
20350;BME280;10332;50.208;18.988;2023-02-14T01:54:35;99766.88;;;5.55;98.34
20350;BME280;10332;50.208;18.988;2023-02-14T01:57:09;99765.41;;;5.44;98.38
20350;BME280;10332;50.208;18.988;2023-02-14T01:59:47;99771.47;;;5.43;98.58
20350;BME280;10332;50.208;18.988;2023-02-14T02:02:17;99765.31;;;5.48;98.67
20350;BME280;10332;50.208;18.988;2023-02-14T02:04:53;99763.56;;;5.49;98.70
20350;BME280;10332;50.208;18.988;2023-02-14T02:07:24;99768.72;;;5.50;98.64
20350;BME280;10332;50.208;18.988;2023-02-14T02:09:58;99766.03;;;5.55;98.55
20350;BME280;10332;50.208;18.988;2023-02-14T02:12:26;99760.84;;;5.55;98.72
20350;BME280;10332;50.208;18.988;2023-02-14T02:14:58;99763.25;;;5.64;98.41
20350;BME280;10332;50.208;18.988;2023-02-14T02:35:23;99770.97;;;5.65;97.46
20350;BME280;10332;50.208;18.988;2023-02-14T02:47:31;99776.84;;;5.74;96.68
20350;BME280;10332;50.208;18.988;2023-02-14T02:50:42;99774.22;;;5.77;96.56
20350;BME280;10332;50.208;18.988;2023-02-14T02:53:55;99774.41;;;5.66;96.19
20350;BME280;10332;50.208;18.988;2023-02-14T02:56:32;99775.22;;;5.69;96.33
20350;BME280;10332;50.208;18.988;2023-02-14T03:02:20;99781.34;;;5.67;96.45
20350;BME280;10332;50.208;18.988;2023-02-14T03:04:57;99784.00;;;5.62;96.18
20350;BME280;10332;50.208;18.988;2023-02-14T03:07:37;99774.50;;;5.63;96.09
20350;BME280;10332;50.208;18.988;2023-02-14T03:10:19;99769.22;;;5.66;96.17
20350;BME280;10332;50.208;18.988;2023-02-14T03:13:22;99772.88;;;5.59;96.19
20350;BME280;10332;50.208;18.988;2023-02-14T03:16:23;99771.19;;;5.55;96.35
20350;BME280;10332;50.208;18.988;2023-02-14T03:22:13;99769.41;;;5.58;96.20
20350;BME280;10332;50.208;18.988;2023-02-14T03:25:27;99771.97;;;5.60;96.03
20350;BME280;10332;50.208;18.988;2023-02-14T03:31:02;99773.69;;;5.61;95.28
20350;BME280;10332;50.208;18.988;2023-02-14T03:36:26;99778.75;;;5.65;94.70
20350;BME280;10332;50.208;18.988;2023-02-14T03:39:12;99783.13;;;5.63;94.72
20350;BME280;10332;50.208;18.988;2023-02-14T03:42:07;99785.75;;;5.62;94.52
20350;BME280;10332;50.208;18.988;2023-02-14T03:44:38;99776.97;;;5.69;94.60
20350;BME280;10332;50.208;18.988;2023-02-14T03:47:12;99785.63;;;5.68;94.48
20350;BME280;10332;50.208;18.988;2023-02-14T03:49:56;99778.03;;;5.59;93.85
20350;BME280;10332;50.208;18.988;2023-02-14T03:52:28;99779.94;;;5.51;94.05
20350;BME280;10332;50.208;18.988;2023-02-14T03:54:57;99779.94;;;5.51;94.28
20350;BME280;10332;50.208;18.988;2023-02-14T03:58:09;99780.06;;;5.45;93.85
20350;BME280;10332;50.208;18.988;2023-02-14T04:00:41;99773.31;;;5.36;94.45
20350;BME280;10332;50.208;18.988;2023-02-14T04:03:13;99775.88;;;5.37;94.62
20350;BME280;10332;50.208;18.988;2023-02-14T04:05:41;99787.06;;;5.39;94.57
20350;BME280;10332;50.208;18.988;2023-02-14T04:08:24;99775.88;;;5.37;94.67
20350;BME280;10332;50.208;18.988;2023-02-14T04:10:53;99776.56;;;5.46;94.54
20350;BME280;10332;50.208;18.988;2023-02-14T04:13:23;99781.19;;;5.30;94.94
20350;BME280;10332;50.208;18.988;2023-02-14T04:15:50;99779.41;;;5.33;95.01
20350;BME280;10332;50.208;18.988;2023-02-14T04:18:17;99779.31;;;5.38;94.61
20350;BME280;10332;50.208;18.988;2023-02-14T04:21:04;99775.94;;;5.34;94.54
20350;BME280;10332;50.208;18.988;2023-02-14T04:23:32;99782.06;;;5.30;94.50
20350;BME280;10332;50.208;18.988;2023-02-14T04:25:59;99776.09;;;5.27;94.67
20350;BME280;10332;50.208;18.988;2023-02-14T04:28:27;99780.31;;;5.32;94.74
20350;BME280;10332;50.208;18.988;2023-02-14T04:30:54;99771.72;;;5.30;94.56
20350;BME280;10332;50.208;18.988;2023-02-14T04:33:22;99774.31;;;5.30;94.27
20350;BME280;10332;50.208;18.988;2023-02-14T04:35:50;99784.63;;;5.32;94.20
20350;BME280;10332;50.208;18.988;2023-02-14T04:38:17;99779.47;;;5.30;94.32
20350;BME280;10332;50.208;18.988;2023-02-14T04:40:50;99781.31;;;5.25;94.47
20350;BME280;10332;50.208;18.988;2023-02-14T04:43:18;99781.31;;;5.25;94.38
20350;BME280;10332;50.208;18.988;2023-02-14T04:45:46;99779.66;;;5.21;94.46
20350;BME280;10332;50.208;18.988;2023-02-14T04:48:14;99788.16;;;5.28;94.51
20350;BME280;10332;50.208;18.988;2023-02-14T04:50:41;99794.13;;;5.31;94.32
20350;BME280;10332;50.208;18.988;2023-02-14T04:53:09;99789.66;;;5.38;94.43
20350;BME280;10332;50.208;18.988;2023-02-14T04:55:36;99788.81;;;5.37;94.37
20350;BME280;10332;50.208;18.988;2023-02-14T04:58:04;99784.59;;;5.33;94.04
20350;BME280;10332;50.208;18.988;2023-02-14T05:00:31;99788.91;;;5.33;94.02
20350;BME280;10332;50.208;18.988;2023-02-14T05:02:59;99792.13;;;5.46;93.82
20350;BME280;10332;50.208;18.988;2023-02-14T05:05:26;99793.03;;;5.43;93.50
20350;BME280;10332;50.208;18.988;2023-02-14T05:07:54;99800.03;;;5.38;93.93
20350;BME280;10332;50.208;18.988;2023-02-14T05:10:21;99791.34;;;5.42;93.58
20350;BME280;10332;50.208;18.988;2023-02-14T05:12:48;99803.34;;;5.45;93.28
20350;BME280;10332;50.208;18.988;2023-02-14T05:15:16;99797.50;;;5.35;93.17
20350;BME280;10332;50.208;18.988;2023-02-14T05:17:43;99801.75;;;5.37;93.39
20350;BME280;10332;50.208;18.988;2023-02-14T05:20:11;99802.75;;;5.32;93.57
20350;BME280;10332;50.208;18.988;2023-02-14T05:22:39;99799.38;;;5.27;93.60
20350;BME280;10332;50.208;18.988;2023-02-14T05:25:06;99803.69;;;5.28;93.64
20350;BME280;10332;50.208;18.988;2023-02-14T05:27:34;99805.69;;;5.12;93.93
20350;BME280;10332;50.208;18.988;2023-02-14T05:30:01;99804.66;;;5.22;93.94
20350;BME280;10332;50.208;18.988;2023-02-14T05:32:29;99805.72;;;5.10;94.10
20350;BME280;10332;50.208;18.988;2023-02-14T05:34:56;99803.09;;;5.12;94.12
20350;BME280;10332;50.208;18.988;2023-02-14T05:37:27;99800.44;;;5.17;93.92
20350;BME280;10332;50.208;18.988;2023-02-14T05:39:54;99810.03;;;5.13;94.26
20350;BME280;10332;50.208;18.988;2023-02-14T05:42:21;99809.38;;;5.00;94.59
20350;BME280;10332;50.208;18.988;2023-02-14T05:44:49;99819.53;;;5.11;94.55
20350;BME280;10332;50.208;18.988;2023-02-14T05:47:16;99810.13;;;5.07;94.49
20350;BME280;10332;50.208;18.988;2023-02-14T05:49:44;99821.16;;;5.17;93.69
20350;BME280;10332;50.208;18.988;2023-02-14T05:52:11;99813.56;;;5.07;94.07
20350;BME280;10332;50.208;18.988;2023-02-14T05:54:38;99813.63;;;5.03;94.36
20350;BME280;10332;50.208;18.988;2023-02-14T05:57:06;99810.94;;;5.09;94.53
20350;BME280;10332;50.208;18.988;2023-02-14T05:59:33;99816.94;;;5.11;94.59
20350;BME280;10332;50.208;18.988;2023-02-14T06:02:01;99820.06;;;5.28;94.21
20350;BME280;10332;50.208;18.988;2023-02-14T06:04:28;99818.44;;;5.24;93.94
20350;BME280;10332;50.208;18.988;2023-02-14T06:06:56;99820.09;;;5.27;93.70
20350;BME280;10332;50.208;18.988;2023-02-14T06:09:23;99822.63;;;5.30;93.48
20350;BME280;10332;50.208;18.988;2023-02-14T06:11:51;99822.44;;;5.39;93.07
20350;BME280;10332;50.208;18.988;2023-02-14T06:14:21;99824.31;;;5.32;92.73
20350;BME280;10332;50.208;18.988;2023-02-14T06:16:49;99819.16;;;5.32;93.14
20350;BME280;10332;50.208;18.988;2023-02-14T06:19:16;99826.84;;;5.35;92.97
20350;BME280;10332;50.208;18.988;2023-02-14T06:21:44;99836.25;;;5.41;93.15
20350;BME280;10332;50.208;18.988;2023-02-14T06:24:11;99841.44;;;5.41;92.47
20350;BME280;10332;50.208;18.988;2023-02-14T06:26:39;99837.94;;;5.42;92.48
20350;BME280;10332;50.208;18.988;2023-02-14T06:29:06;99836.22;;;5.43;92.46
20350;BME280;10332;50.208;18.988;2023-02-14T06:31:34;99831.91;;;5.41;92.41
20350;BME280;10332;50.208;18.988;2023-02-14T06:34:02;99834.47;;;5.43;92.50
20350;BME280;10332;50.208;18.988;2023-02-14T06:36:29;99834.38;;;5.48;92.21
20350;BME280;10332;50.208;18.988;2023-02-14T06:38:56;99840.38;;;5.51;92.37
20350;BME280;10332;50.208;18.988;2023-02-14T06:41:24;99841.25;;;5.50;92.51
20350;BME280;10332;50.208;18.988;2023-02-14T06:43:51;99836.00;;;5.53;92.26
20350;BME280;10332;50.208;18.988;2023-02-14T06:46:19;99837.84;;;5.48;92.41
20350;BME280;10332;50.208;18.988;2023-02-14T06:48:47;99835.94;;;5.56;92.38
20350;BME280;10332;50.208;18.988;2023-02-14T06:51:15;99839.38;;;5.58;92.22
20350;BME280;10332;50.208;18.988;2023-02-14T06:53:42;99841.84;;;5.63;91.99
20350;BME280;10332;50.208;18.988;2023-02-14T06:56:10;99845.25;;;5.66;91.65
20350;BME280;10332;50.208;18.988;2023-02-14T06:58:37;99839.22;;;5.64;91.58
20350;BME280;10332;50.208;18.988;2023-02-14T07:01:04;99847.69;;;5.73;91.31
20350;BME280;10332;50.208;18.988;2023-02-14T07:03:32;99849.56;;;5.67;91.04
20350;BME280;10332;50.208;18.988;2023-02-14T07:05:59;99843.38;;;5.73;90.52
20350;BME280;10332;50.208;18.988;2023-02-14T07:08:27;99842.44;;;5.77;90.84
20350;BME280;10332;50.208;18.988;2023-02-14T07:10:56;99845.88;;;5.78;90.98
20350;BME280;10332;50.208;18.988;2023-02-14T07:13:25;99858.63;;;5.88;90.44
20350;BME280;10332;50.208;18.988;2023-02-14T07:15:53;99851.69;;;5.90;90.11
20350;BME280;10332;50.208;18.988;2023-02-14T07:18:20;99849.91;;;5.92;90.02
20350;BME280;10332;50.208;18.988;2023-02-14T07:20:49;99863.75;;;5.91;89.82
20350;BME280;10332;50.208;18.988;2023-02-14T07:23:17;99860.94;;;6.04;89.79
20350;BME280;10332;50.208;18.988;2023-02-14T07:25:45;99858.41;;;5.99;89.17
20350;BME280;10332;50.208;18.988;2023-02-14T07:28:12;99854.91;;;6.03;89.22
20350;BME280;10332;50.208;18.988;2023-02-14T07:30:40;99852.91;;;6.14;88.90
20350;BME280;10332;50.208;18.988;2023-02-14T07:33:07;99860.41;;;6.26;88.51
20350;BME280;10332;50.208;18.988;2023-02-14T07:35:35;99854.50;;;6.20;88.15
20350;BME280;10332;50.208;18.988;2023-02-14T07:38:02;99862.94;;;6.31;88.14
20350;BME280;10332;50.208;18.988;2023-02-14T07:40:30;99869.00;;;6.30;87.36
20350;BME280;10332;50.208;18.988;2023-02-14T07:42:58;99860.13;;;6.40;87.38
20350;BME280;10332;50.208;18.988;2023-02-14T07:45:27;99859.22;;;6.41;86.54
20350;BME280;10332;50.208;18.988;2023-02-14T07:47:54;99859.97;;;6.46;86.43
20350;BME280;10332;50.208;18.988;2023-02-14T07:50:22;99860.81;;;6.48;86.11
20350;BME280;10332;50.208;18.988;2023-02-14T07:52:50;99853.63;;;6.60;86.03
20350;BME280;10332;50.208;18.988;2023-02-14T07:55:18;99857.75;;;6.68;85.68
20350;BME280;10332;50.208;18.988;2023-02-14T07:57:48;99853.41;;;6.69;85.30
20350;BME280;10332;50.208;18.988;2023-02-14T08:00:17;99862.13;;;6.65;85.85
20350;BME280;10332;50.208;18.988;2023-02-14T08:02:44;99861.41;;;6.60;86.02
20350;BME280;10332;50.208;18.988;2023-02-14T08:05:12;99862.13;;;6.65;85.53
20350;BME280;10332;50.208;18.988;2023-02-14T08:07:40;99859.34;;;6.72;85.56
20350;BME280;10332;50.208;18.988;2023-02-14T08:10:10;99860.91;;;6.79;85.23
20350;BME280;10332;50.208;18.988;2023-02-14T08:12:39;99863.34;;;6.87;85.04
20350;BME280;10332;50.208;18.988;2023-02-14T08:15:34;99862.16;;;6.99;84.24
20350;BME280;10332;50.208;18.988;2023-02-14T08:18:21;99867.38;;;6.99;83.68
20350;BME280;10332;50.208;18.988;2023-02-14T08:20:53;99866.13;;;7.14;83.60
20350;BME280;10332;50.208;18.988;2023-02-14T08:23:22;99863.50;;;7.15;83.47
20350;BME280;10332;50.208;18.988;2023-02-14T08:25:51;99868.53;;;7.21;83.07
20350;BME280;10332;50.208;18.988;2023-02-14T08:28:19;99866.72;;;7.25;82.66
20350;BME280;10332;50.208;18.988;2023-02-14T08:30:51;99868.22;;;7.33;82.38
20350;BME280;10332;50.208;18.988;2023-02-14T08:33:19;99872.22;;;7.45;81.91
20350;BME280;10332;50.208;18.988;2023-02-14T08:35:50;99874.75;;;7.48;81.17
20350;BME280;10332;50.208;18.988;2023-02-14T08:38:17;99866.56;;;7.62;80.55
20350;BME280;10332;50.208;18.988;2023-02-14T08:40:45;99878.03;;;7.86;79.44
20350;BME280;10332;50.208;18.988;2023-02-14T08:43:13;99867.56;;;8.18;78.35
20350;BME280;10332;50.208;18.988;2023-02-14T08:45:40;99873.28;;;8.02;77.74
20350;BME280;10332;50.208;18.988;2023-02-14T08:48:10;99890.34;;;8.10;78.11
20350;BME280;10332;50.208;18.988;2023-02-14T08:50:39;99886.22;;;8.03;78.04
20350;BME280;10332;50.208;18.988;2023-02-14T08:53:11;99889.94;;;7.94;78.56
20350;BME280;10332;50.208;18.988;2023-02-14T08:55:40;99892.16;;;7.77;78.87
20350;BME280;10332;50.208;18.988;2023-02-14T08:58:07;99895.09;;;7.96;78.28
20350;BME280;10332;50.208;18.988;2023-02-14T09:00:35;99889.34;;;7.85;78.49
20350;BME280;10332;50.208;18.988;2023-02-14T09:03:02;99885.31;;;8.04;78.17
20350;BME280;10332;50.208;18.988;2023-02-14T09:05:32;99891.84;;;8.19;77.67
20350;BME280;10332;50.208;18.988;2023-02-14T09:08:02;99893.72;;;8.43;77.36
20350;BME280;10332;50.208;18.988;2023-02-14T09:10:29;99896.16;;;8.49;76.71
20350;BME280;10332;50.208;18.988;2023-02-14T09:12:57;99893.31;;;8.57;76.25
20350;BME280;10332;50.208;18.988;2023-02-14T09:15:25;99899.38;;;8.58;76.05
20350;BME280;10332;50.208;18.988;2023-02-14T09:17:52;99893.78;;;8.42;76.03
20350;BME280;10332;50.208;18.988;2023-02-14T09:20:20;99896.63;;;8.33;75.85
20350;BME280;10332;50.208;18.988;2023-02-14T09:22:48;99888.66;;;8.39;75.89
20350;BME280;10332;50.208;18.988;2023-02-14T09:25:16;99898.28;;;8.37;75.81
20350;BME280;10332;50.208;18.988;2023-02-14T09:27:45;99889.38;;;8.44;75.79
20350;BME280;10332;50.208;18.988;2023-02-14T09:30:13;99888.50;;;8.45;75.81
20350;BME280;10332;50.208;18.988;2023-02-14T09:32:41;99893.69;;;8.73;75.48
20350;BME280;10332;50.208;18.988;2023-02-14T09:35:09;99894.31;;;8.79;74.91
20350;BME280;10332;50.208;18.988;2023-02-14T09:37:36;99907.66;;;8.97;74.58
20350;BME280;10332;50.208;18.988;2023-02-14T09:40:04;99896.66;;;9.15;74.28
20350;BME280;10332;50.208;18.988;2023-02-14T09:45:24;99905.81;;;9.52;71.61
20350;BME280;10332;50.208;18.988;2023-02-14T09:48:42;99909.13;;;9.82;71.12
20350;BME280;10332;50.208;18.988;2023-02-14T09:51:18;99912.41;;;9.87;69.17
20350;BME280;10332;50.208;18.988;2023-02-14T09:54:13;99908.88;;;9.88;68.09
20350;BME280;10332;50.208;18.988;2023-02-14T10:05:57;99898.22;;;10.86;63.79
20350;BME280;10332;50.208;18.988;2023-02-14T10:11:19;99898.69;;;11.18;62.45
20350;BME280;10332;50.208;18.988;2023-02-14T10:13:54;99901.00;;;11.03;62.83
20350;BME280;10332;50.208;18.988;2023-02-14T10:16:52;99904.63;;;10.79;63.00
20350;BME280;10332;50.208;18.988;2023-02-14T10:19:27;99895.50;;;10.89;63.53
20350;BME280;10332;50.208;18.988;2023-02-14T10:22:02;99903.19;;;10.92;62.95
20350;BME280;10332;50.208;18.988;2023-02-14T10:24:48;99909.66;;;10.62;63.11
20350;BME280;10332;50.208;18.988;2023-02-14T10:27:54;99898.28;;;10.85;62.68
20350;BME280;10332;50.208;18.988;2023-02-14T10:30:24;99907.75;;;11.09;63.10
20350;BME280;10332;50.208;18.988;2023-02-14T10:33:15;99892.59;;;11.17;62.07
20350;BME280;10332;50.208;18.988;2023-02-14T10:36:40;99893.97;;;11.26;61.83
20350;BME280;10332;50.208;18.988;2023-02-14T10:43:47;99882.34;;;11.33;61.80
20350;BME280;10332;50.208;18.988;2023-02-14T10:49:58;99886.44;;;11.59;61.29
20350;BME280;10332;50.208;18.988;2023-02-14T10:52:47;99894.06;;;11.45;60.18
20350;BME280;10332;50.208;18.988;2023-02-14T10:56:19;99892.78;;;11.13;60.82
20350;BME280;10332;50.208;18.988;2023-02-14T10:58:50;99889.28;;;10.48;61.32
20350;BME280;10332;50.208;18.988;2023-02-14T11:01:19;99886.53;;;10.29;62.71
20350;BME280;10332;50.208;18.988;2023-02-14T11:03:57;99880.31;;;10.32;62.56
20350;BME280;10332;50.208;18.988;2023-02-14T11:06:30;99874.81;;;10.16;62.42
20350;BME280;10332;50.208;18.988;2023-02-14T11:08:58;99876.19;;;10.03;62.60
20350;BME280;10332;50.208;18.988;2023-02-14T11:16:53;99866.81;;;9.74;64.34
20350;BME280;10332;50.208;18.988;2023-02-14T11:19:30;99872.31;;;9.66;64.79
20350;BME280;10332;50.208;18.988;2023-02-14T11:22:00;99867.03;;;9.67;65.01
20350;BME280;10332;50.208;18.988;2023-02-14T11:24:39;99864.34;;;9.46;65.35
20350;BME280;10332;50.208;18.988;2023-02-14T11:29:48;99863.16;;;9.29;66.04
20350;BME280;10332;50.208;18.988;2023-02-14T11:37:29;99856.88;;;9.10;67.20
20350;BME280;10332;50.208;18.988;2023-02-14T11:40:00;99855.78;;;9.17;67.08
20350;BME280;10332;50.208;18.988;2023-02-14T11:42:44;99846.88;;;9.23;67.07
20350;BME280;10332;50.208;18.988;2023-02-14T11:45:35;99850.66;;;9.39;66.81
20350;BME280;10332;50.208;18.988;2023-02-14T11:48:22;99846.34;;;9.38;66.43
20350;BME280;10332;50.208;18.988;2023-02-14T11:51:11;99847.03;;;9.43;66.58
20350;BME280;10332;50.208;18.988;2023-02-14T11:53:52;99850.50;;;9.44;66.08
20350;BME280;10332;50.208;18.988;2023-02-14T11:56:23;99839.50;;;9.35;65.85
20350;BME280;10332;50.208;18.988;2023-02-14T11:58:58;99839.13;;;9.21;66.41
20350;BME280;10332;50.208;18.988;2023-02-14T12:01:34;99838.22;;;8.96;67.78
20350;BME280;10332;50.208;18.988;2023-02-14T12:04:18;99825.69;;;8.82;67.97
20350;BME280;10332;50.208;18.988;2023-02-14T12:06:47;99834.03;;;8.92;68.34
20350;BME280;10332;50.208;18.988;2023-02-14T12:11:56;99838.16;;;8.99;68.43
20350;BME280;10332;50.208;18.988;2023-02-14T12:14:29;99828.53;;;8.74;69.41
20350;BME280;10332;50.208;18.988;2023-02-14T12:17:03;99827.47;;;8.80;69.28
20350;BME280;10332;50.208;18.988;2023-02-14T12:20:03;99825.94;;;8.74;69.44
20350;BME280;10332;50.208;18.988;2023-02-14T12:23:05;99823.22;;;8.77;69.37
20350;BME280;10332;50.208;18.988;2023-02-14T12:26:01;99817.63;;;8.90;69.09
20350;BME280;10332;50.208;18.988;2023-02-14T12:28:44;99819.00;;;9.00;68.70
20350;BME280;10332;50.208;18.988;2023-02-14T12:31:15;99818.16;;;8.99;68.14
20350;BME280;10332;50.208;18.988;2023-02-14T12:33:43;99815.19;;;9.10;67.90
20350;BME280;10332;50.208;18.988;2023-02-14T12:39:36;99800.84;;;8.97;67.64
20350;BME280;10332;50.208;18.988;2023-02-14T12:45:58;99801.88;;;8.93;68.24
20350;BME280;10332;50.208;18.988;2023-02-14T12:49:07;99805.75;;;9.06;68.18
20350;BME280;10332;50.208;18.988;2023-02-14T12:51:43;99796.34;;;9.02;68.26
20350;BME280;10332;50.208;18.988;2023-02-14T13:00:33;99797.63;;;9.15;68.39
20350;BME280;10332;50.208;18.988;2023-02-14T13:10:03;99794.69;;;8.74;69.32
20350;BME280;10332;50.208;18.988;2023-02-14T13:15:27;99786.72;;;8.79;69.94
20350;BME280;10332;50.208;18.988;2023-02-14T13:18:31;99784.69;;;8.87;69.94
20350;BME280;10332;50.208;18.988;2023-02-14T13:21:05;99779.13;;;8.98;69.63
20350;BME280;10332;50.208;18.988;2023-02-14T13:23:40;99780.59;;;9.05;69.38
20350;BME280;10332;50.208;18.988;2023-02-14T13:26:29;99774.34;;;8.86;68.93
20350;BME280;10332;50.208;18.988;2023-02-14T13:29:06;99775.34;;;8.81;69.34
20350;BME280;10332;50.208;18.988;2023-02-14T13:31:37;99781.34;;;8.84;69.88
20350;BME280;10332;50.208;18.988;2023-02-14T13:36:57;99770.84;;;8.60;70.84
20350;BME280;10332;50.208;18.988;2023-02-14T13:39:41;99768.34;;;8.57;71.15
20350;BME280;10332;50.208;18.988;2023-02-14T13:42:11;99772.53;;;8.63;71.17
20350;BME280;10332;50.208;18.988;2023-02-14T13:44:46;99766.13;;;8.71;70.88
20350;BME280;10332;50.208;18.988;2023-02-14T13:47:21;99774.97;;;8.92;70.63
20350;BME280;10332;50.208;18.988;2023-02-14T13:50:02;99769.72;;;8.94;70.25
20350;BME280;10332;50.208;18.988;2023-02-14T13:52:52;99784.56;;;8.92;69.98
20350;BME280;10332;50.208;18.988;2023-02-14T13:55:25;99777.06;;;8.82;68.90
20350;BME280;10332;50.208;18.988;2023-02-14T13:58:17;99772.44;;;8.91;69.30
20350;BME280;10332;50.208;18.988;2023-02-14T14:00:47;99773.91;;;8.98;69.19
20350;BME280;10332;50.208;18.988;2023-02-14T14:06:11;99781.03;;;8.93;68.69
20350;BME280;10332;50.208;18.988;2023-02-14T14:08:43;99777.41;;;8.72;69.09
20350;BME280;10332;50.208;18.988;2023-02-14T14:14:00;99779.72;;;8.81;69.14
20350;BME280;10332;50.208;18.988;2023-02-14T14:16:34;99777.84;;;8.85;69.22
20350;BME280;10332;50.208;18.988;2023-02-14T14:22:02;99779.97;;;8.73;69.53
20350;BME280;10332;50.208;18.988;2023-02-14T14:24:36;99772.22;;;8.72;69.67
20350;BME280;10332;50.208;18.988;2023-02-14T14:27:32;99774.94;;;8.67;69.69
20350;BME280;10332;50.208;18.988;2023-02-14T14:30:30;99767.34;;;8.61;70.11
20350;BME280;10332;50.208;18.988;2023-02-14T14:33:30;99774.28;;;8.36;70.97
20350;BME280;10332;50.208;18.988;2023-02-14T14:38:31;99776.25;;;8.26;71.16
20350;BME280;10332;50.208;18.988;2023-02-14T14:41:00;99786.03;;;8.19;71.29
20350;BME280;10332;50.208;18.988;2023-02-14T14:43:35;99782.06;;;8.06;71.73
20350;BME280;10332;50.208;18.988;2023-02-14T14:46:11;99779.41;;;8.09;71.81
20350;BME280;10332;50.208;18.988;2023-02-14T14:48:47;99774.59;;;7.95;72.41
20350;BME280;10332;50.208;18.988;2023-02-14T14:51:27;99775.84;;;8.12;72.11
20350;BME280;10332;50.208;18.988;2023-02-14T14:54:00;99781.28;;;8.04;71.75
20350;BME280;10332;50.208;18.988;2023-02-14T14:56:37;99773.53;;;8.03;71.52
20350;BME280;10332;50.208;18.988;2023-02-14T14:59:35;99780.66;;;7.96;71.45
20350;BME280;10332;50.208;18.988;2023-02-14T15:02:21;99771.25;;;7.92;71.81
20350;BME280;10332;50.208;18.988;2023-02-14T15:04:49;99772.44;;;7.82;72.19
20350;BME280;10332;50.208;18.988;2023-02-14T15:07:33;99773.50;;;7.75;72.34
20350;BME280;10332;50.208;18.988;2023-02-14T15:10:01;99767.84;;;7.60;73.15
20350;BME280;10332;50.208;18.988;2023-02-14T15:12:29;99766.41;;;7.50;73.74
20350;BME280;10332;50.208;18.988;2023-02-14T15:15:17;99765.28;;;7.59;73.42
20350;BME280;10332;50.208;18.988;2023-02-14T15:17:46;99764.63;;;7.52;73.68
20350;BME280;10332;50.208;18.988;2023-02-14T15:20:19;99763.75;;;7.52;73.69
20350;BME280;10332;50.208;18.988;2023-02-14T15:22:50;99763.53;;;7.59;73.87
20350;BME280;10332;50.208;18.988;2023-02-14T15:25:27;99767.84;;;7.60;73.84
20350;BME280;10332;50.208;18.988;2023-02-14T15:27:57;99763.91;;;7.47;74.33
20350;BME280;10332;50.208;18.988;2023-02-14T15:30:29;99769.75;;;7.55;74.21
20350;BME280;10332;50.208;18.988;2023-02-14T15:33:06;99768.13;;;7.51;74.27
20350;BME280;10332;50.208;18.988;2023-02-14T15:35:38;99771.72;;;7.47;74.49
20350;BME280;10332;50.208;18.988;2023-02-14T15:38:10;99776.06;;;7.47;74.53